»·PEaware :: N737TD L52-L88

N737TD :: L52-L88

FLIGHT INFORMATION

Flight Status: Arrived
Operator: Privately registered:
United States
More flights under this callsign
Pilot: Sterling Y. (23248)
Aircraft: CESSNA 172 SKYHAWK
(C172)
More flights by this aircraft type
Origin: L52 Oceano Co
United States
Destination: L88 New Cuyama
United States
More flights between these airports :: More routes between these airports
Route:
File this flight plan on PilotEdge
Remarks:
Altitude:
(Current/Filed)
7,500ft
Speed:
(Current/Filed)
120kts
Departed: 02-Feb-19 03:57 PM
Arrived: 02-Feb-19 04:39 PM
Distance/Time
Traveled:
47nm/0:42
Distance/Time
To Go:
Arrived

Flight Plot

Page will automatically refresh every two minutes.


Map Options




Map Legend


Flown Route
Filed Route
Departure Airport
Arrival Airport
Navaid (VOR, NDB)
Fix

Horizontal Profiles

Position Reports

Time Latitude Longitude Heading Altitude Ground
Speed
02-Feb-19 15:47 35.103339 -120.624314 32 19ft 0kts
02-Feb-19 15:48 35.103339 -120.624314 32 19ft 0kts
02-Feb-19 15:49 35.103339 -120.624314 32 19ft 0kts
02-Feb-19 15:50 35.103339 -120.624314 32 19ft 0kts
02-Feb-19 15:51 35.103551 -120.624466 312 18ft 6kts
02-Feb-19 15:52 35.103742 -120.624786 292 18ft 0kts
02-Feb-19 15:53 35.103742 -120.624787 292 18ft 0kts
02-Feb-19 15:54 35.103638 -120.625095 205 18ft 8kts
02-Feb-19 15:55 35.103026 -120.625096 120 19ft 0kts
02-Feb-19 15:56 35.097889 -120.615311 117 242ft 63kts
02-Feb-19 15:57 35.098642 -120.595055 57 948ft 66kts
02-Feb-19 15:59 35.103166 -120.572368 79 1629ft 66kts
02-Feb-19 16:00 35.105325 -120.550211 83 2411ft 67kts
02-Feb-19 16:01 35.107400 -120.526157 86 3181ft 73kts
02-Feb-19 16:02 35.108949 -120.498287 85 3871ft 88kts
02-Feb-19 16:03 35.112082 -120.466562 78 4536ft 98kts
02-Feb-19 16:04 35.117040 -120.432118 77 5132ft 102kts
02-Feb-19 16:05 35.122922 -120.397763 78 5712ft 102kts
02-Feb-19 16:06 35.128428 -120.362754 80 6256ft 103kts
02-Feb-19 16:07 35.134754 -120.328394 81 6724ft 106kts
02-Feb-19 16:08 35.127770 -120.294951 121 7170ft 106kts
02-Feb-19 16:09 35.126386 -120.259280 80 7590ft 106kts
02-Feb-19 16:10 35.128661 -120.222755 87 7985ft 107kts
02-Feb-19 16:11 35.131138 -120.181308 84 7744ft 131kts
02-Feb-19 16:12 35.135775 -120.137460 80 7486ft 123kts
02-Feb-19 16:13 35.140673 -120.095487 97 7214ft 128kts
02-Feb-19 16:14 35.140935 -120.055992 86 7231ft 105kts
02-Feb-19 16:15 35.139146 -120.021714 121 7141ft 100kts
02-Feb-19 16:15 35.126634 -119.997083 122 7079ft 97kts
02-Feb-19 16:16 35.111115 -119.970139 126 7051ft 95kts
02-Feb-19 16:18 35.089852 -119.942412 137 7020ft 95kts
02-Feb-19 16:19 35.069677 -119.920952 135 6993ft 95kts
02-Feb-19 16:19 35.054208 -119.901744 124 6973ft 94kts
02-Feb-19 16:20 35.039694 -119.874945 121 6951ft 94kts
02-Feb-19 16:21 35.026423 -119.846734 121 6919ft 95kts
02-Feb-19 16:23 35.007550 -119.819009 128 6898ft 94kts
02-Feb-19 16:23 34.995948 -119.795859 116 6800ft 103kts
02-Feb-19 16:24 34.979717 -119.763802 130 5907ft 112kts
02-Feb-19 16:25 34.961562 -119.735827 117 4486ft 83kts
02-Feb-19 16:26 34.950718 -119.709648 119 2872ft 85kts
02-Feb-19 16:27 34.940267 -119.689249 128 2309ft 56kts
02-Feb-19 16:28 34.927144 -119.679338 157 2766ft 56kts
02-Feb-19 16:29 34.912639 -119.671269 154 3195ft 56kts
02-Feb-19 16:30 34.899654 -119.661512 85 3569ft 58kts
02-Feb-19 16:31 34.900640 -119.659567 49 3548ft 67kts
02-Feb-19 16:32 34.900640 -119.659567 49 3548ft 67kts
02-Feb-19 16:33 34.900640 -119.659567 49 3548ft 67kts
02-Feb-19 16:34 34.900649 -119.659554 49 3549ft 66kts
02-Feb-19 16:35 34.909147 -119.660032 308 3723ft 71kts
02-Feb-19 16:36 34.916618 -119.668436 318 3796ft 80kts
02-Feb-19 16:37 34.938513 -119.682120 293 2243ft 70kts
02-Feb-19 16:38 34.942017 -119.690665 315 2164ft 12kts
02-Feb-19 16:39 34.942676 -119.690905 3 2160ft 0kts
02-Feb-19 16:40 34.942676 -119.690905 3 2160ft 0kts
02-Feb-19 16:41 34.942676 -119.690905 3 2160ft 0kts
02-Feb-19 16:42 34.942676 -119.690905 3 2160ft 0kts
02-Feb-19 16:43 34.943924 -119.690797 203 2153ft 0kts
02-Feb-19 16:44 34.943924 -119.690797 202 2153ft 0kts
02-Feb-19 16:45 34.943924 -119.690797 202 2153ft 0kts
02-Feb-19 16:46 34.943924 -119.690797 202 2153ft 0kts
02-Feb-19 16:47 34.943077 -119.690817 173 2158ft 0kts

Navigation Log

Ident Type
Flight plan parsing failed, navigation log unavailable